Time;durP1;ratioP1;P1;durP2;ratioP2;P2;SDS_P1;SDS_P2;PMS_P1;PMS_P2;Temp;Humidity;BMP_temperature;BMP_pressure;BME280_temperature;BME280_humidity;BME280_pressure;Samples;Min_cycle;Max_cycle;Signal;HPM_P1;HPM_P2
2022/02/17 00:00:46;;;;;;;9.18;2.28;;;12.60;85.50;;;;;;5020578;28;20487;-79
2022/02/17 00:03:11;;;;;;;14.25;3.22;;;12.60;85.70;;;;;;5015749;28;20029;-79
2022/02/17 00:05:37;;;;;;;13.40;2.85;;;12.70;86.00;;;;;;5022309;28;20144;-80
2022/02/17 00:08:03;;;;;;;12.82;2.95;;;12.60;86.00;;;;;;5017676;28;21644;-79
2022/02/17 00:10:30;;;;;;;12.02;2.92;;;12.70;86.10;;;;;;5014399;28;20395;-78
2022/02/17 00:12:57;;;;;;;14.55;3.25;;;12.70;86.10;;;;;;5020937;28;20048;-79
2022/02/17 00:15:23;;;;;;;13.60;3.30;;;12.70;86.00;;;;;;5013991;28;20157;-78
2022/02/17 00:17:48;;;;;;;12.98;3.65;;;12.70;85.90;;;;;;5017778;28;20038;-80
2022/02/17 00:20:15;;;;;;;8.55;2.53;;;12.70;85.80;;;;;;5016800;28;20025;-79
2022/02/17 00:22:40;;;;;;;10.90;2.90;;;12.70;85.60;;;;;;5016681;28;20057;-80
2022/02/17 00:25:06;;;;;;;12.80;3.20;;;12.70;85.60;;;;;;5017009;28;20053;-80
2022/02/17 00:27:32;;;;;;;10.25;2.85;;;12.70;85.50;;;;;;5023780;28;20033;-80
2022/02/17 00:29:58;;;;;;;12.45;3.00;;;12.70;85.20;;;;;;5021695;28;20044;-80
2022/02/17 00:32:23;;;;;;;12.20;2.92;;;12.80;85.20;;;;;;5022017;28;20032;-79
2022/02/17 00:34:49;;;;;;;13.35;3.17;;;12.80;85.00;;;;;;5024250;28;20048;-80
2022/02/17 00:37:14;;;;;;;18.05;3.50;;;12.80;85.00;;;;;;5021286;28;20026;-81
2022/02/17 00:39:40;;;;;;;10.35;3.03;;;12.80;84.60;;;;;;5023984;28;20052;-81
2022/02/17 00:42:06;;;;;;;12.05;2.83;;;12.70;84.40;;;;;;5021804;28;20064;-79
2022/02/17 00:44:32;;;;;;;12.32;3.10;;;12.80;84.30;;;;;;5027960;28;20071;-79
2022/02/17 00:46:58;;;;;;;12.35;3.20;;;12.70;83.60;;;;;;5013376;28;20036;-79
2022/02/17 00:49:26;;;;;;;9.68;2.53;;;12.70;83.60;;;;;;5022519;28;20026;-79
2022/02/17 00:51:52;;;;;;;11.27;3.30;;;12.70;83.40;;;;;;5014148;28;20050;-79
2022/02/17 00:54:18;;;;;;;9.70;2.60;;;12.60;83.10;;;;;;5022496;28;20022;-79
2022/02/17 00:56:44;;;;;;;12.57;3.30;;;12.60;83.10;;;;;;5022958;28;20052;-79
2022/02/17 00:59:11;;;;;;;11.65;2.55;;;12.60;82.90;;;;;;5004442;28;20038;-80
2022/02/17 01:01:36;;;;;;;11.32;2.75;;;12.60;83.10;;;;;;5017507;28;20385;-79
2022/02/17 01:04:02;;;;;;;12.05;2.90;;;12.60;83.10;;;;;;5018164;28;20087;-80
2022/02/17 01:06:28;;;;;;;8.65;2.50;;;12.60;82.90;;;;;;5015116;28;20040;-79
2022/02/17 01:08:53;;;;;;;16.15;3.50;;;12.60;83.10;;;;;;5011153;28;20022;-77
2022/02/17 01:11:19;;;;;;;10.48;2.72;;;12.50;83.40;;;;;;5018010;28;20039;-79
2022/02/17 01:13:44;;;;;;;9.73;2.35;;;12.30;83.40;;;;;;5016306;28;20029;-79
2022/02/17 01:16:10;;;;;;;8.20;2.33;;;12.00;83.00;;;;;;5021576;28;20022;-79
2022/02/17 01:18:35;;;;;;;9.43;2.63;;;11.80;84.10;;;;;;5018816;28;20396;-79
2022/02/17 01:21:01;;;;;;;11.35;3.00;;;11.70;84.80;;;;;;5026202;28;20029;-78
2022/02/17 01:23:28;;;;;;;9.68;2.95;;;11.70;85.20;;;;;;5014302;28;20038;-78
2022/02/17 01:25:53;;;;;;;11.32;2.80;;;11.70;85.10;;;;;;5016462;28;20026;-79
2022/02/17 01:28:19;;;;;;;9.80;2.88;;;11.70;84.70;;;;;;5009383;28;20113;-79
2022/02/17 01:30:45;;;;;;;8.82;2.42;;;11.70;84.10;;;;;;5027098;28;20055;-80
2022/02/17 01:33:10;;;;;;;8.85;2.30;;;11.60;83.60;;;;;;5012540;28;20018;-79
2022/02/17 01:35:36;;;;;;;10.45;2.58;;;11.50;83.00;;;;;;5021867;28;20029;-79
2022/02/17 01:38:02;;;;;;;11.55;2.55;;;11.50;82.50;;;;;;5014437;28;20014;-78
2022/02/17 01:40:28;;;;;;;12.18;3.03;;;11.40;81.70;;;;;;5013646;28;20029;-79
2022/02/17 01:42:53;;;;;;;7.88;2.10;;;11.40;81.00;;;;;;5024222;28;20038;-79
2022/02/17 01:45:19;;;;;;;14.38;2.75;;;11.40;81.20;;;;;;5016080;28;20532;-79
2022/02/17 01:47:47;;;;;;;9.50;2.55;;;11.30;79.90;;;;;;5010663;28;20044;-77
2022/02/17 01:50:12;;;;;;;7.95;2.35;;;11.40;80.20;;;;;;5009213;28;20030;-77
2022/02/17 01:52:38;;;;;;;13.05;2.67;;;11.40;80.30;;;;;;5019263;28;20026;-76
2022/02/17 01:55:04;;;;;;;10.10;2.90;;;11.30;80.50;;;;;;5021435;28;20065;-78
2022/02/17 01:57:31;;;;;;;14.05;2.88;;;11.30;80.60;;;;;;5013764;28;20034;-78
2022/02/17 01:59:57;;;;;;;11.00;2.97;;;11.40;80.40;;;;;;5007057;28;20516;-78
2022/02/17 02:02:23;;;;;;;13.15;3.05;;;11.40;80.50;;;;;;5013902;28;20092;-78
2022/02/17 02:04:49;;;;;;;8.90;3.08;;;11.40;80.50;;;;;;5017076;28;20038;-77
2022/02/17 02:07:15;;;;;;;14.38;3.22;;;11.40;80.60;;;;;;5020670;28;20026;-76
2022/02/17 02:09:41;;;;;;;11.35;3.28;;;11.40;80.60;;;;;;5016866;28;20532;-78
2022/02/17 02:12:08;;;;;;;14.57;2.92;;;11.40;80.40;;;;;;5023495;28;20022;-78
2022/02/17 02:14:34;;;;;;;15.05;3.67;;;11.50;80.30;;;;;;5015081;28;20018;-77
2022/02/17 02:17:01;;;;;;;16.77;3.47;;;11.50;80.50;;;;;;5037150;28;20033;-78
2022/02/17 02:19:26;;;;;;;15.80;3.88;;;11.50;80.50;;;;;;5016640;28;20025;-78
2022/02/17 02:21:52;;;;;;;19.38;4.47;;;11.50;80.70;;;;;;5022643;28;20484;-77
2022/02/17 02:24:18;;;;;;;16.27;3.85;;;11.60;80.90;;;;;;5015303;28;20044;-78
2022/02/17 02:26:43;;;;;;;19.17;4.45;;;11.50;81.10;;;;;;5018916;28;20104;-79
2022/02/17 02:29:09;;;;;;;20.08;4.40;;;11.50;81.20;;;;;;5014143;28;20021;-78
2022/02/17 02:31:35;;;;;;;13.93;3.47;;;11.60;81.40;;;;;;5013920;28;20370;-78
2022/02/17 02:34:00;;;;;;;16.00;4.05;;;11.60;81.50;;;;;;5020306;28;20030;-77
2022/02/17 02:36:26;;;;;;;21.60;4.72;;;11.60;81.50;;;;;;5011393;28;20160;-78
2022/02/17 02:38:52;;;;;;;16.70;4.22;;;11.60;81.40;;;;;;5017757;28;20022;-78
2022/02/17 02:41:18;;;;;;;20.63;4.13;;;11.60;81.20;;;;;;5012513;28;20240;-78
2022/02/17 02:43:45;;;;;;;20.25;4.68;;;11.50;80.90;;;;;;5024508;28;20040;-79
2022/02/17 02:46:10;;;;;;;17.58;4.28;;;11.60;79.70;;;;;;5012512;28;20045;-81
2022/02/17 02:48:36;;;;;;;20.45;4.45;;;11.50;78.80;;;;;;5017962;28;20100;-80
2022/02/17 02:51:02;;;;;;;16.67;3.80;;;11.50;77.70;;;;;;5010523;28;20033;-80
2022/02/17 02:53:28;;;;;;;14.23;3.58;;;11.50;76.40;;;;;;5012728;28;20029;-81
2022/02/17 02:55:54;;;;;;;14.50;4.18;;;11.40;75.00;;;;;;5010797;28;20076;-80
2022/02/17 02:58:19;;;;;;;11.82;3.00;;;11.40;75.00;;;;;;5017779;28;20042;-80
2022/02/17 03:00:46;;;;;;;10.07;3.00;;;11.40;74.30;;;;;;5016364;28;20037;-80
2022/02/17 03:03:12;;;;;;;14.57;3.30;;;11.40;73.30;;;;;;5016574;28;20128;-80
2022/02/17 03:05:42;;;;;;;11.05;3.25;;;11.40;72.90;;;;;;5021188;28;20432;-80
2022/02/17 03:08:07;;;;;;;12.05;3.25;;;11.40;73.40;;;;;;5012300;28;20072;-79
2022/02/17 03:10:33;;;;;;;10.93;2.65;;;11.40;72.60;;;;;;5013989;28;20035;-77
2022/02/17 03:13:00;;;;;;;12.25;3.10;;;11.40;73.20;;;;;;5022760;28;20036;-78
2022/02/17 03:15:26;;;;;;;10.40;2.80;;;11.40;73.00;;;;;;5018717;28;20034;-78
2022/02/17 03:17:53;;;;;;;13.77;2.95;;;11.30;73.00;;;;;;5016816;28;20087;-77
2022/02/17 03:20:19;;;;;;;12.70;2.88;;;11.40;72.40;;;;;;5017706;28;20556;-79
2022/02/17 03:22:45;;;;;;;12.43;3.20;;;11.30;72.50;;;;;;5018216;28;20087;-78
2022/02/17 03:25:13;;;;;;;12.20;3.15;;;11.30;72.10;;;;;;5017755;28;20030;-78
2022/02/17 03:27:39;;;;;;;12.98;3.08;;;11.30;71.40;;;;;;5014949;28;20071;-78
2022/02/17 03:30:07;;;;;;;8.95;2.50;;;11.20;70.50;;;;;;5021383;28;20109;-77
2022/02/17 03:32:34;;;;;;;13.10;3.20;;;11.20;70.40;;;;;;5022108;28;20454;-78
2022/02/17 03:35:00;;;;;;;14.77;3.63;;;11.20;69.90;;;;;;5014714;28;20022;-78
2022/02/17 03:37:26;;;;;;;11.98;3.28;;;11.20;68.60;;;;;;5009841;28;20092;-77
2022/02/17 03:39:51;;;;;;;12.20;3.17;;;11.10;68.10;;;;;;5025465;28;20026;-78
2022/02/17 03:42:17;;;;;;;14.77;3.10;;;11.10;67.90;;;;;;5012475;28;20401;-78
2022/02/17 03:44:43;;;;;;;16.75;3.67;;;11.10;68.20;;;;;;5021017;28;20570;-79
2022/02/17 03:47:09;;;;;;;14.25;3.22;;;11.00;67.60;;;;;;5013673;28;20454;-81
2022/02/17 03:49:34;;;;;;;13.38;3.30;;;11.00;66.70;;;;;;5017973;28;20029;-79
2022/02/17 03:52:00;;;;;;;13.10;3.22;;;11.00;66.40;;;;;;5019895;28;20025;-80
2022/02/17 03:54:25;;;;;;;11.73;3.38;;;10.90;66.40;;;;;;5012534;28;20037;-79
2022/02/17 03:56:51;;;;;;;12.45;2.92;;;10.90;65.80;;;;;;5015627;28;20065;-80
2022/02/17 03:59:16;;;;;;;9.85;2.97;;;10.90;64.90;;;;;;5015594;28;20040;-81
2022/02/17 04:01:42;;;;;;;11.07;2.92;;;10.90;65.30;;;;;;5013917;28;20396;-80
2022/02/17 04:04:09;;;;;;;10.85;2.90;;;10.90;65.60;;;;;;5007842;28;20023;-80
2022/02/17 04:06:34;;;;;;;9.05;2.30;;;10.80;65.30;;;;;;5009114;28;20511;-79
2022/02/17 04:09:00;;;;;;;9.43;2.40;;;10.80;66.30;;;;;;5002651;28;20553;-80
2022/02/17 04:11:26;;;;;;;13.68;3.15;;;10.80;65.80;;;;;;5009008;28;20390;-79
2022/02/17 04:13:52;;;;;;;8.57;2.58;;;10.80;65.70;;;;;;5007356;28;20018;-81
2022/02/17 04:16:19;;;;;;;9.65;2.83;;;10.70;65.90;;;;;;5006470;28;20109;-80
2022/02/17 04:18:45;;;;;;;12.10;3.35;;;10.80;66.00;;;;;;5007457;28;20022;-80
2022/02/17 04:21:12;;;;;;;12.00;2.78;;;10.70;66.30;;;;;;5006040;28;20021;-79
2022/02/17 04:23:44;;;;;;;10.60;2.85;;;10.70;66.70;;;;;;5009283;28;20038;-80
2022/02/17 04:26:13;;;;;;;12.65;2.80;;;10.80;67.00;;;;;;5007487;28;20022;-79
2022/02/17 04:28:40;;;;;;;11.00;3.22;;;10.70;67.60;;;;;;5008723;28;20037;-79
2022/02/17 04:31:06;;;;;;;10.73;3.30;;;10.70;67.40;;;;;;5007449;28;20026;-79
2022/02/17 04:33:36;;;;;;;9.95;2.70;;;10.70;67.70;;;;;;5010163;28;20025;-79
2022/02/17 04:36:02;;;;;;;13.43;3.30;;;10.70;67.60;;;;;;5007720;28;20026;-78
2022/02/17 04:38:29;;;;;;;11.68;2.95;;;10.70;67.90;;;;;;5006361;28;20029;-78
2022/02/17 04:43:39;;;;;;;13.77;3.80;;;10.70;67.90;;;;;;5018581;28;20052;-78
2022/02/17 04:46:05;;;;;;;14.00;3.53;;;10.70;68.20;;;;;;5007864;28;20025;-78
2022/02/17 04:48:32;;;;;;;13.25;3.70;;;10.70;68.30;;;;;;5008787;28;20034;-78
2022/02/17 04:50:57;;;;;;;14.02;3.33;;;10.70;68.30;;;;;;5013028;28;20076;-79
2022/02/17 04:53:24;;;;;;;13.48;3.33;;;10.70;68.60;;;;;;5013258;28;20037;-77
2022/02/17 04:55:49;;;;;;;12.85;3.00;;;10.80;68.70;;;;;;5024964;28;20132;-77
2022/02/17 04:58:15;;;;;;;14.15;3.15;;;10.80;68.90;;;;;;5014293;28;20216;-76
2022/02/17 05:00:41;;;;;;;14.55;3.47;;;10.70;68.70;;;;;;5020574;28;20026;-77
2022/02/17 05:03:06;;;;;;;11.80;2.97;;;10.80;68.70;;;;;;5014888;28;20029;-77
2022/02/17 05:05:32;;;;;;;15.40;3.17;;;10.80;68.70;;;;;;5018072;28;20037;-79
2022/02/17 05:07:57;;;;;;;13.93;2.67;;;10.80;68.80;;;;;;5020453;28;20041;-79
2022/02/17 05:10:23;;;;;;;11.40;3.15;;;10.70;68.80;;;;;;5015842;28;20064;-79
2022/02/17 05:12:48;;;;;;;18.98;3.78;;;10.70;69.00;;;;;;5010931;28;20468;-79
2022/02/17 05:15:14;;;;;;;18.02;3.72;;;10.70;68.60;;;;;;5019880;28;20060;-79
2022/02/17 05:17:39;;;;;;;9.90;2.85;;;10.70;68.10;;;;;;5018923;28;20022;-80
2022/02/17 05:20:06;;;;;;;11.93;2.97;;;10.70;68.00;;;;;;5017911;28;20048;-77
2022/02/17 05:22:32;;;;;;;10.57;2.95;;;10.70;68.50;;;;;;5008469;28;20033;-78
2022/02/17 05:24:58;;;;;;;10.38;2.45;;;10.50;69.00;;;;;;5011248;28;20041;-77
2022/02/17 05:27:23;;;;;;;10.05;2.50;;;10.30;69.90;;;;;;5007037;28;20022;-78
2022/02/17 05:29:49;;;;;;;9.52;2.60;;;10.10;70.80;;;;;;5009667;28;20701;-78
2022/02/17 05:32:14;;;;;;;10.02;2.33;;;10.00;71.70;;;;;;5020968;28;20018;-77
2022/02/17 05:34:40;;;;;;;9.55;2.53;;;10.00;72.30;;;;;;5021486;28;20607;-78
2022/02/17 05:37:06;;;;;;;7.60;1.77;;;9.90;72.90;;;;;;5014880;28;20029;-78
2022/02/17 05:39:31;;;;;;;9.40;2.60;;;9.90;73.50;;;;;;5014544;28;20029;-76
2022/02/17 05:41:57;;;;;;;8.27;2.20;;;9.80;74.30;;;;;;5008012;28;20022;-77
2022/02/17 05:44:23;;;;;;;9.40;2.13;;;9.70;75.00;;;;;;5015918;28;20041;-77
2022/02/17 05:46:48;;;;;;;16.60;4.00;;;9.60;75.50;;;;;;5013067;28;20634;-77
2022/02/17 05:49:14;;;;;;;14.20;3.35;;;9.60;76.00;;;;;;5007158;28;20045;-77
2022/02/17 05:51:40;;;;;;;11.52;2.55;;;9.50;76.00;;;;;;5011209;28;20018;-77
2022/02/17 05:54:05;;;;;;;10.63;2.88;;;9.50;75.90;;;;;;5018461;28;20033;-78
2022/02/17 05:56:31;;;;;;;12.63;2.72;;;9.50;75.70;;;;;;5015465;28;20029;-77
2022/02/17 05:58:56;;;;;;;13.45;2.85;;;9.40;75.30;;;;;;5014611;28;20559;-76
2022/02/17 06:01:22;;;;;;;9.60;2.90;;;9.50;75.00;;;;;;5011085;28;20401;-77
2022/02/17 06:03:47;;;;;;;12.35;3.05;;;9.50;74.70;;;;;;5012565;28;20551;-76
2022/02/17 06:06:13;;;;;;;12.27;2.72;;;9.40;74.40;;;;;;5014093;28;20060;-78
2022/02/17 06:08:38;;;;;;;9.25;2.38;;;9.40;74.30;;;;;;5003580;28;20038;-78
2022/02/17 06:11:05;;;;;;;12.35;3.30;;;9.40;74.30;;;;;;5004831;28;20427;-78
2022/02/17 06:13:30;;;;;;;12.27;2.88;;;9.40;74.20;;;;;;5002708;28;20512;-79
2022/02/17 06:15:57;;;;;;;9.27;2.80;;;9.40;74.00;;;;;;5009462;28;20048;-78
2022/02/17 06:18:22;;;;;;;11.93;2.70;;;9.40;73.40;;;;;;5013496;28;20088;-78
2022/02/17 06:20:49;;;;;;;12.82;2.85;;;9.40;72.50;;;;;;5013178;28;20147;-79
2022/02/17 06:23:14;;;;;;;12.45;3.10;;;9.40;72.30;;;;;;5008184;28;20160;-79
2022/02/17 06:25:40;;;;;;;9.05;2.35;;;9.40;72.20;;;;;;5009595;28;20479;-79
2022/02/17 06:28:05;;;;;;;10.27;2.60;;;9.40;72.00;;;;;;5009031;28;20021;-78
2022/02/17 06:30:31;;;;;;;12.20;2.80;;;9.50;72.00;;;;;;5012890;28;20105;-78
2022/02/17 06:32:57;;;;;;;13.05;3.20;;;9.50;72.00;;;;;;5011340;28;20040;-79
2022/02/17 06:35:26;;;;;;;13.38;3.30;;;9.50;72.00;;;;;;5010315;28;20029;-79
2022/02/17 06:37:53;;;;;;;14.25;2.70;;;9.50;72.00;;;;;;5022809;28;20045;-80
2022/02/17 06:40:19;;;;;;;10.88;2.85;;;9.50;71.90;;;;;;5017404;28;20033;-78
2022/02/17 06:42:46;;;;;;;11.15;2.70;;;9.50;71.70;;;;;;5010522;28;20102;-80
2022/02/17 06:45:11;;;;;;;7.82;2.70;;;9.60;71.30;;;;;;5007660;28;20037;-79
2022/02/17 06:47:37;;;;;;;13.45;3.15;;;9.50;71.00;;;;;;5003738;28;20021;-79
2022/02/17 06:50:05;;;;;;;14.18;3.10;;;9.60;70.80;;;;;;5006090;28;20030;-78
2022/02/17 06:52:31;;;;;;;9.52;2.75;;;9.60;70.30;;;;;;5007366;28;20088;-79
2022/02/17 06:54:57;;;;;;;11.43;2.53;;;9.60;69.40;;;;;;4999986;28;20029;-78
2022/02/17 06:57:23;;;;;;;9.45;2.08;;;9.60;67.70;;;;;;5006987;28;20030;-79
2022/02/17 06:59:50;;;;;;;8.55;2.10;;;9.70;67.50;;;;;;5002545;28;20117;-79
2022/02/17 07:02:22;;;;;;;10.75;2.67;;;9.60;67.30;;;;;;5006927;28;20452;-79
2022/02/17 07:04:48;;;;;;;9.55;2.53;;;9.70;67.10;;;;;;5005368;28;20030;-79
2022/02/17 07:07:13;;;;;;;9.38;2.58;;;9.70;66.50;;;;;;5009131;28;20467;-78
2022/02/17 07:09:38;;;;;;;8.02;2.20;;;9.70;66.20;;;;;;5008294;28;20388;-78
2022/02/17 07:12:04;;;;;;;8.07;2.17;;;9.70;66.00;;;;;;5017197;28;20126;-78
2022/02/17 07:14:30;;;;;;;6.75;2.20;;;9.70;66.40;;;;;;5015261;28;20082;-78
2022/02/17 07:16:58;;;;;;;6.38;1.70;;;9.70;66.00;;;;;;5012249;28;20041;-79
2022/02/17 07:19:25;;;;;;;7.88;1.85;;;9.70;65.10;;;;;;5012751;28;20507;-78
2022/02/17 07:21:51;;;;;;;4.85;1.58;;;9.70;64.10;;;;;;5020570;28;20096;-78
2022/02/17 07:24:20;;;;;;;6.90;1.77;;;9.70;63.30;;;;;;5009937;28;20141;-78
2022/02/17 07:26:46;;;;;;;4.72;1.40;;;9.70;62.80;;;;;;5009344;28;20029;-79
2022/02/17 07:29:12;;;;;;;7.43;1.60;;;9.60;62.90;;;;;;5003048;28;20392;-82
2022/02/17 07:31:38;;;;;;;6.72;1.80;;;9.60;62.70;;;;;;5003350;28;20034;-79
2022/02/17 07:34:04;;;;;;;7.68;1.80;;;9.50;61.50;;;;;;5009634;28;20025;-78
2022/02/17 07:36:30;;;;;;;7.20;1.80;;;9.50;61.40;;;;;;5009606;28;20523;-80
2022/02/17 07:38:56;;;;;;;6.45;1.48;;;9.50;61.90;;;;;;5007242;28;20029;-80
2022/02/17 07:41:22;;;;;;;5.85;1.60;;;9.50;61.40;;;;;;5016346;28;20507;-80
2022/02/17 07:43:47;;;;;;;5.88;1.80;;;9.50;61.10;;;;;;5012952;28;20033;-79
2022/02/17 07:46:13;;;;;;;4.80;1.65;;;9.50;61.50;;;;;;5011456;28;20033;-80
2022/02/17 07:48:40;;;;;;;7.10;1.55;;;9.50;61.80;;;;;;5006870;28;20052;-79
2022/02/17 07:51:06;;;;;;;7.70;1.88;;;9.50;62.30;;;;;;5019492;28;20048;-79
2022/02/17 07:53:32;;;;;;;6.10;1.50;;;9.60;62.90;;;;;;5012206;28;20022;-80
2022/02/17 07:55:58;;;;;;;7.68;2.13;;;9.60;63.10;;;;;;5013840;28;20064;-80
2022/02/17 07:58:25;;;;;;;7.85;2.13;;;9.60;64.00;;;;;;5009759;28;20037;-78
2022/02/17 08:00:50;;;;;;;8.10;2.03;;;9.60;64.80;;;;;;5010063;28;20057;-78
2022/02/17 08:03:16;;;;;;;5.55;1.70;;;9.60;65.50;;;;;;5019145;28;20045;-79
2022/02/17 08:05:42;;;;;;;8.98;2.00;;;9.60;66.10;;;;;;5009520;28;20057;-77
2022/02/17 08:08:09;;;;;;;6.82;2.00;;;9.60;66.50;;;;;;5009301;28;20084;-77
2022/02/17 08:10:35;;;;;;;8.15;2.35;;;9.70;66.60;;;;;;5012613;28;20100;-78
2022/02/17 08:13:02;;;;;;;9.18;2.90;;;9.70;66.70;;;;;;5018394;28;20484;-79
2022/02/17 08:15:28;;;;;;;11.60;2.53;;;9.80;66.30;;;;;;5017036;28;20480;-79
2022/02/17 08:17:53;;;;;;;10.13;2.40;;;9.80;65.10;;;;;;5023756;28;20033;-77
2022/02/17 08:20:19;;;;;;;6.97;1.98;;;9.80;64.60;;;;;;5020556;28;20037;-78
2022/02/17 08:22:56;;;;;;;7.70;2.17;;;9.80;64.70;;;;;;5019653;28;20033;-79
2022/02/17 08:25:22;;;;;;;7.07;2.20;;;9.80;65.10;;;;;;5018392;28;20037;-80
2022/02/17 08:27:49;;;;;;;8.02;2.10;;;9.80;65.40;;;;;;5024976;28;20041;-79
2022/02/17 08:30:15;;;;;;;6.63;1.98;;;9.80;65.40;;;;;;5012088;28;20034;-78
2022/02/17 08:32:42;;;;;;;6.70;1.80;;;9.80;65.00;;;;;;5020529;28;20025;-78
2022/02/17 08:35:10;;;;;;;6.43;1.63;;;9.80;65.00;;;;;;5020554;28;20471;-76
2022/02/17 08:37:36;;;;;;;5.82;1.80;;;9.80;64.40;;;;;;5017664;28;20026;-74
2022/02/17 08:40:03;;;;;;;7.35;2.13;;;9.80;64.30;;;;;;5016269;28;20105;-76
2022/02/17 08:42:29;;;;;;;7.53;1.80;;;9.90;63.00;;;;;;5017915;28;20087;-75
2022/02/17 08:44:55;;;;;;;7.10;1.95;;;9.90;62.90;;;;;;5021374;28;20484;-76
2022/02/17 08:47:21;;;;;;;8.20;1.95;;;10.00;62.50;;;;;;5018194;28;20052;-76
2022/02/17 08:49:47;;;;;;;5.90;1.60;;;10.00;61.40;;;;;;5013604;28;20080;-76
2022/02/17 08:52:13;;;;;;;9.30;2.58;;;10.00;61.60;;;;;;5013977;28;20017;-77
2022/02/17 08:54:39;;;;;;;6.13;2.00;;;10.00;61.70;;;;;;5010319;28;20459;-78
2022/02/17 08:57:04;;;;;;;7.00;2.05;;;9.90;62.20;;;;;;5022315;28;20030;-77
2022/02/17 08:59:30;;;;;;;9.13;2.20;;;10.00;62.30;;;;;;5016285;28;20037;-77
2022/02/17 09:01:56;;;;;;;7.32;2.20;;;10.00;62.20;;;;;;5011866;28;20030;-74
2022/02/17 09:04:23;;;;;;;8.55;2.25;;;10.00;62.00;;;;;;5014131;28;20060;-76
2022/02/17 09:06:49;;;;;;;9.98;2.05;;;9.90;61.50;;;;;;5019899;28;20077;-73
2022/02/17 09:09:15;;;;;;;7.00;2.38;;;10.00;61.90;;;;;;5008530;28;20026;-74
2022/02/17 09:11:41;;;;;;;7.72;1.70;;;10.00;61.70;;;;;;5018712;28;20083;-75
2022/02/17 09:14:06;;;;;;;6.70;1.67;;;10.00;61.30;;;;;;5011716;28;21688;-76
2022/02/17 09:16:33;;;;;;;6.85;1.90;;;10.00;60.90;;;;;;5016092;28;20026;-78
2022/02/17 09:18:59;;;;;;;7.13;2.15;;;10.00;61.10;;;;;;5003032;28;20109;-75
2022/02/17 09:21:24;;;;;;;8.18;1.95;;;10.00;60.70;;;;;;5010814;28;20161;-74
2022/02/17 09:23:50;;;;;;;4.85;1.73;;;10.00;60.70;;;;;;5009895;28;20097;-76
2022/02/17 09:26:16;;;;;;;5.43;1.92;;;10.00;60.70;;;;;;5008765;28;20084;-75
2022/02/17 09:28:43;;;;;;;5.32;1.77;;;10.00;60.70;;;;;;5009207;28;20018;-76
2022/02/17 09:31:12;;;;;;;6.40;2.00;;;10.00;60.70;;;;;;5009315;28;20388;-76
2022/02/17 09:33:38;;;;;;;6.18;1.88;;;10.00;60.60;;;;;;5009373;28;20053;-76
2022/02/17 09:36:04;;;;;;;5.13;1.80;;;10.10;60.90;;;;;;5013793;28;20022;-76
2022/02/17 09:38:30;;;;;;;5.13;1.55;;;10.10;61.00;;;;;;5008214;28;20034;-76
2022/02/17 09:40:56;;;;;;;8.80;2.08;;;10.10;60.10;;;;;;5011171;28;20073;-76
2022/02/17 09:43:24;;;;;;;7.47;1.95;;;10.10;59.00;;;;;;5008885;28;20034;-75
2022/02/17 09:45:51;;;;;;;6.20;1.85;;;10.10;58.80;;;;;;5009753;28;20028;-76
2022/02/17 09:48:17;;;;;;;4.63;1.42;;;10.10;58.70;;;;;;5010547;28;20115;-76
2022/02/17 09:50:43;;;;;;;10.80;1.90;;;10.10;58.80;;;;;;5002710;28;20786;-75
2022/02/17 09:53:09;;;;;;;6.88;1.65;;;10.20;58.20;;;;;;5001369;28;20065;-75
2022/02/17 09:55:35;;;;;;;6.25;1.67;;;10.20;58.30;;;;;;5007850;28;20026;-75
2022/02/17 09:58:01;;;;;;;9.80;1.55;;;10.20;58.10;;;;;;5006863;28;20081;-75
2022/02/17 10:00:27;;;;;;;7.00;2.13;;;10.20;57.70;;;;;;5013581;28;20464;-75
2022/02/17 10:02:53;;;;;;;8.75;1.80;;;10.20;57.50;;;;;;5006109;28;20096;-75
2022/02/17 10:05:19;;;;;;;8.63;1.85;;;10.20;57.50;;;;;;5007536;28;20493;-78
2022/02/17 10:07:45;;;;;;;5.13;1.60;;;10.30;57.70;;;;;;5006128;28;20057;-77
2022/02/17 10:10:15;;;;;;;7.50;1.83;;;10.40;57.40;;;;;;5007736;28;20037;-75
2022/02/17 10:12:59;;;;;;;5.05;1.42;;;10.50;56.60;;;;;;5001503;28;20052;-76
2022/02/17 10:15:32;;;;;;;5.70;2.25;;;10.50;56.80;;;;;;5010211;28;20093;-76
2022/02/17 10:18:13;;;;;;;5.13;1.52;;;10.50;56.40;;;;;;5007542;28;20026;-74
2022/02/17 10:20:58;;;;;;;5.70;1.52;;;10.60;56.70;;;;;;5007689;28;20496;-76
2022/02/17 10:23:30;;;;;;;7.03;1.60;;;10.70;56.80;;;;;;5010254;28;20042;-76
2022/02/17 10:26:28;;;;;;;;;;;10.70;56.60;;;;;;5003583;28;20030;-74
2022/02/17 10:28:59;;;;;;;5.90;1.77;;;10.80;57.10;;;;;;4997457;28;19925;-76
2022/02/17 10:31:27;;;;;;;8.05;1.80;;;10.80;57.30;;;;;;5011549;28;20025;-77
2022/02/17 10:33:54;;;;;;;5.75;1.70;;;10.80;56.70;;;;;;5012530;28;20616;-75
2022/02/17 10:36:42;;;;;;;7.95;1.85;;;10.70;56.60;;;;;;5010181;28;20026;-76
2022/02/17 10:39:14;;;;;;;5.93;1.45;;;10.70;56.60;;;;;;5001770;28;20030;-77
2022/02/17 10:41:51;;;;;;;6.72;2.00;;;10.70;56.90;;;;;;5005539;28;20029;-76
2022/02/17 10:44:18;;;;;;;5.45;1.70;;;10.70;57.40;;;;;;5005152;28;20516;-75
2022/02/17 10:46:43;;;;;;;7.07;1.85;;;10.80;57.70;;;;;;5008010;28;20084;-77
2022/02/17 10:49:12;;;;;;;6.72;1.45;;;10.90;57.00;;;;;;5012589;28;20029;-74
2022/02/17 10:51:38;;;;;;;5.18;1.60;;;10.80;56.30;;;;;;5006850;28;20036;-75
2022/02/17 10:54:06;;;;;;;5.18;1.60;;;10.70;56.30;;;;;;5008058;28;20125;-75
2022/02/17 10:56:33;;;;;;;6.43;1.70;;;10.80;56.20;;;;;;5002404;28;20069;-76
2022/02/17 10:59:04;;;;;;;5.88;1.63;;;10.70;55.60;;;;;;5006809;28;20044;-76
2022/02/17 11:01:30;;;;;;;5.35;1.75;;;10.80;55.90;;;;;;5008615;28;20022;-77
2022/02/17 11:03:56;;;;;;;4.93;1.70;;;10.80;55.40;;;;;;5009791;28;20034;-76
2022/02/17 11:06:22;;;;;;;5.03;1.63;;;10.90;55.00;;;;;;5008493;28;20105;-77
2022/02/17 11:08:51;;;;;;;5.22;1.35;;;10.90;54.60;;;;;;5007955;28;20107;-76
2022/02/17 11:11:18;;;;;;;6.25;1.45;;;10.90;55.00;;;;;;5012815;28;20029;-76
2022/02/17 11:13:49;;;;;;;6.22;1.40;;;11.00;55.00;;;;;;5012205;28;20029;-76
2022/02/17 11:16:17;;;;;;;6.28;1.92;;;11.10;54.90;;;;;;5012943;28;20557;-78
2022/02/17 11:18:44;;;;;;;8.20;1.70;;;11.20;55.00;;;;;;5011115;28;20036;-79
2022/02/17 11:21:15;;;;;;;6.25;1.42;;;11.20;55.00;;;;;;5016162;28;20485;-78
2022/02/17 11:23:41;;;;;;;4.35;1.38;;;11.30;54.80;;;;;;5022730;28;20045;-77
2022/02/17 11:26:26;;;;;;;5.25;1.67;;;11.30;54.70;;;;;;5013064;28;20027;-79
2022/02/17 11:28:52;;;;;;;6.18;1.80;;;11.30;54.30;;;;;;5017355;28;20030;-77
2022/02/17 11:31:17;;;;;;;4.85;1.50;;;11.30;53.40;;;;;;5017377;28;20028;-77
2022/02/17 11:33:57;;;;;;;5.18;1.63;;;11.40;53.80;;;;;;5010897;28;20444;-78
2022/02/17 11:36:24;;;;;;;5.57;1.70;;;11.40;53.60;;;;;;5011716;28;20037;-77
2022/02/17 11:38:59;;;;;;;8.00;1.70;;;11.40;53.90;;;;;;5014855;28;20041;-77
2022/02/17 11:41:30;;;;;;;6.18;1.50;;;11.40;53.80;;;;;;5015781;28;20044;-79
2022/02/17 11:44:08;;;;;;;5.65;1.73;;;11.30;54.00;;;;;;5023448;28;20033;-78
2022/02/17 11:46:48;;;;;;;4.43;1.50;;;11.40;54.60;;;;;;5020142;28;20117;-78
2022/02/17 11:49:35;;;;;;;7.68;1.58;;;11.50;54.20;;;;;;5004058;28;20408;-78
2022/02/17 11:52:18;;;;;;;7.47;2.00;;;11.60;54.50;;;;;;5017834;28;20033;-77
2022/02/17 11:55:28;;;;;;;8.40;1.90;;;11.70;54.90;;;;;;5015634;28;20103;-78
2022/02/17 11:57:55;;;;;;;7.47;1.55;;;11.70;53.20;;;;;;5014242;28;20026;-77
2022/02/17 12:00:23;;;;;;;3.97;1.77;;;11.70;52.90;;;;;;5007335;28;20112;-78
2022/02/17 12:02:50;;;;;;;9.05;1.65;;;11.70;53.00;;;;;;5006915;28;20108;-78
2022/02/17 12:05:17;;;;;;;5.50;1.50;;;11.70;53.40;;;;;;5012073;28;20131;-80
2022/02/17 12:07:43;;;;;;;4.45;1.25;;;11.80;52.70;;;;;;5012996;28;20033;-76
2022/02/17 12:10:32;;;;;;;5.57;1.83;;;11.90;52.90;;;;;;5016309;28;20100;-77
2022/02/17 12:13:01;;;;;;;5.90;1.65;;;12.00;53.10;;;;;;5014102;28;20457;-81
2022/02/17 12:15:27;;;;;;;5.38;1.45;;;12.10;53.10;;;;;;5007601;28;20029;-77
2022/02/17 12:17:56;;;;;;;6.85;1.60;;;12.00;52.90;;;;;;5017878;28;20391;-79
2022/02/17 12:20:25;;;;;;;5.35;1.80;;;12.00;53.10;;;;;;5013734;28;20022;-80
2022/02/17 12:22:55;;;;;;;7.03;1.63;;;11.90;53.20;;;;;;5018977;28;20022;-80
2022/02/17 12:25:25;;;;;;;4.80;1.50;;;11.90;53.60;;;;;;5011035;28;20125;-78
2022/02/17 12:27:54;;;;;;;6.28;1.70;;;11.90;53.10;;;;;;5017513;28;20109;-77
2022/02/17 12:30:37;;;;;;;5.78;1.60;;;11.70;52.70;;;;;;5012162;28;20516;-80
2022/02/17 12:33:18;;;;;;;6.45;1.73;;;11.60;52.80;;;;;;5012692;28;20022;-79
2022/02/17 12:36:00;;;;;;;6.53;1.48;;;11.50;53.20;;;;;;5017631;28;20045;-77
2022/02/17 12:38:28;;;;;;;7.35;1.55;;;11.50;53.10;;;;;;5018468;28;20032;-80
2022/02/17 12:40:54;;;;;;;7.00;1.80;;;11.60;53.40;;;;;;5014553;28;20026;-77
2022/02/17 12:43:32;;;;;;;5.70;1.58;;;11.70;53.00;;;;;;5023813;28;20033;-78
2022/02/17 12:45:58;;;;;;;7.18;1.60;;;11.80;53.00;;;;;;5010577;28;20021;-77
2022/02/17 12:48:28;;;;;;;5.90;1.58;;;12.00;52.50;;;;;;5020362;28;20057;-75